Time;durP1;ratioP1;P1;durP2;ratioP2;P2;SDS_P1;SDS_P2;PMS_P1;PMS_P2;Temp;Humidity;BMP_temperature;BMP_pressure;BME280_temperature;BME280_humidity;BME280_pressure;Samples;Min_cycle;Max_cycle;Signal;HPM_P1;HPM_P2
2021/12/16 00:08:39;;;;;;;15.77;12.37;;;8.80;86.60;;;;;;5001908;28;20461;-47
2021/12/16 00:11:26;;;;;;;16.00;12.70;;;8.70;86.60;;;;;;4985631;28;20455;-47
2021/12/16 00:30:37;;;;;;;16.47;12.13;;;8.70;87.00;;;;;;4996471;28;21017;-47
2021/12/16 00:35:38;;;;;;;18.43;12.00;;;8.60;87.00;;;;;;4999188;28;20460;-47
2021/12/16 00:38:05;;;;;;;15.87;12.27;;;8.70;87.00;;;;;;5000403;28;20473;-47
2021/12/16 00:40:32;;;;;;;18.17;12.00;;;8.70;87.00;;;;;;4988064;28;20457;-47
2021/12/16 00:43:12;;;;;;;15.03;11.60;;;8.70;87.00;;;;;;4983423;28;20499;-47
2021/12/16 00:45:56;;;;;;;18.20;13.30;;;8.70;87.10;;;;;;5000960;28;20455;-47
2021/12/16 00:48:36;;;;;;;19.50;12.87;;;8.70;87.00;;;;;;4998860;28;20528;-47
2021/12/16 00:56:34;;;;;;;18.20;13.70;;;8.70;87.00;;;;;;5001992;28;20463;-47
2021/12/16 00:59:03;;;;;;;16.93;12.20;;;8.70;86.80;;;;;;4985180;28;20484;-47
2021/12/16 01:01:40;;;;;;;20.67;13.50;;;8.60;87.00;;;;;;4998696;28;20452;-47
2021/12/16 01:05:14;;;;;;;19.20;13.53;;;8.70;87.00;;;;;;4998647;28;20493;-47
2021/12/16 01:07:22;;;;;;;18.07;13.07;;;8.60;87.10;;;;;;4995634;28;20464;-47
2021/12/16 01:45:26;;;;;;;16.60;11.30;;;8.70;87.20;;;;;;5001840;28;20489;-47
2021/12/16 01:50:35;;;;;;;17.10;12.57;;;8.70;87.00;;;;;;4989961;28;20492;-47
2021/12/16 01:56:03;;;;;;;17.77;11.53;;;8.60;87.40;;;;;;5003709;28;20560;-47
2021/12/16 01:58:32;;;;;;;16.73;12.00;;;8.60;87.10;;;;;;5005787;28;21071;-47
2021/12/16 02:01:16;;;;;;;17.77;12.13;;;8.60;87.20;;;;;;5002696;28;20471;-47
2021/12/16 02:03:57;;;;;;;14.97;11.40;;;8.70;87.20;;;;;;4977133;28;20926;-47
2021/12/16 02:09:22;;;;;;;16.20;10.77;;;8.60;87.50;;;;;;5000336;28;20828;-47
2021/12/16 02:12:08;;;;;;;16.93;11.17;;;8.60;87.50;;;;;;4984165;28;20958;-47
2021/12/16 02:28:51;;;;;;;17.07;11.03;;;8.50;87.70;;;;;;5000772;28;20558;-47
2021/12/16 02:38:49;;;;;;;13.60;10.20;;;8.50;87.70;;;;;;4998585;28;20483;-47
2021/12/16 02:41:16;;;;;;;17.70;11.10;;;8.50;87.70;;;;;;5003447;28;20476;-47
2021/12/16 02:49:03;;;;;;;13.10;10.70;;;8.50;87.70;;;;;;5003883;28;20453;-47
2021/12/16 02:51:33;;;;;;;16.17;11.27;;;8.50;87.70;;;;;;5003352;28;20445;-47
2021/12/16 02:54:05;;;;;;;15.00;10.20;;;8.50;87.80;;;;;;4983604;28;20464;-47
2021/12/16 02:56:33;;;;;;;15.03;10.43;;;8.60;87.60;;;;;;5001830;28;20452;-47
2021/12/16 02:59:00;;;;;;;17.07;12.33;;;8.60;87.40;;;;;;4987883;28;20484;-47
2021/12/16 03:01:42;;;;;;;19.30;11.77;;;8.60;87.30;;;;;;4985328;28;20467;-47
2021/12/16 03:04:13;;;;;;;13.93;10.60;;;8.60;87.40;;;;;;4987872;28;20491;-47
2021/12/16 03:06:47;;;;;;;14.93;10.50;;;8.60;87.40;;;;;;5001593;28;20456;-47
2021/12/16 03:09:18;;;;;;;17.93;10.97;;;8.50;87.50;;;;;;4982794;28;20480;-47
2021/12/16 03:12:18;;;;;;;14.87;10.10;;;8.50;87.70;;;;;;5001486;28;20460;-47
2021/12/16 03:14:40;;;;;;;11.73;10.10;;;8.50;87.80;;;;;;5002749;28;20464;-47
2021/12/16 03:19:50;;;;;;;14.57;11.13;;;8.50;87.80;;;;;;5004603;28;20504;-47
2021/12/16 03:22:41;;;;;;;14.43;9.90;;;8.50;87.70;;;;;;5000945;28;20480;-50
2021/12/16 03:35:33;;;;;;;14.23;10.43;;;8.50;87.60;;;;;;5001583;28;20660;-50
2021/12/16 03:38:05;;;;;;;14.50;11.57;;;8.60;87.80;;;;;;4999610;28;20555;-50
2021/12/16 03:40:33;;;;;;;15.00;10.33;;;8.60;87.50;;;;;;4969022;28;21028;-50
2021/12/16 03:43:08;;;;;;;13.60;10.60;;;8.60;87.60;;;;;;5001045;28;20483;-50
2021/12/16 03:48:55;;;;;;;15.23;11.37;;;8.60;87.50;;;;;;5002798;28;20833;-50
2021/12/16 03:51:22;;;;;;;15.10;10.10;;;8.60;87.30;;;;;;4987614;28;20453;-50
2021/12/16 03:53:51;;;;;;;14.67;10.40;;;8.60;87.40;;;;;;4998364;28;20464;-50
2021/12/16 03:56:18;;;;;;;15.37;10.93;;;8.60;87.40;;;;;;4988197;28;21160;-50
2021/12/16 03:58:46;;;;;;;16.03;10.60;;;8.60;87.30;;;;;;4997827;28;20492;-50
2021/12/16 04:01:17;;;;;;;16.53;10.20;;;8.60;87.50;;;;;;4991769;28;20471;-50
2021/12/16 04:03:46;;;;;;;13.60;10.27;;;8.60;87.40;;;;;;4998328;28;20484;-50
2021/12/16 04:06:13;;;;;;;13.83;9.80;;;8.50;87.40;;;;;;5001424;28;20455;-50
2021/12/16 04:08:40;;;;;;;16.40;11.07;;;8.50;87.60;;;;;;4982489;28;20857;-50
2021/12/16 04:11:16;;;;;;;14.90;11.60;;;8.40;87.70;;;;;;4987513;28;20456;-50
2021/12/16 04:13:57;;;;;;;14.90;10.83;;;8.40;87.80;;;;;;5002406;28;20958;-50
2021/12/16 04:16:32;;;;;;;17.90;12.30;;;8.40;87.90;;;;;;4997462;28;20463;-50
2021/12/16 04:19:09;;;;;;;12.80;10.20;;;8.40;87.80;;;;;;5000448;28;20469;-50
2021/12/16 04:21:46;;;;;;;19.90;12.20;;;8.40;88.00;;;;;;5002113;28;20512;-50
2021/12/16 04:24:13;;;;;;;17.30;11.40;;;8.40;87.90;;;;;;5001708;28;21121;-50
2021/12/16 04:26:43;;;;;;;19.37;12.30;;;8.40;88.00;;;;;;5001698;28;20468;-50
2021/12/16 04:29:10;;;;;;;16.77;10.10;;;8.40;88.10;;;;;;4986861;28;20457;-50
2021/12/16 04:31:38;;;;;;;13.20;10.63;;;8.40;88.10;;;;;;4999364;28;20457;-50
2021/12/16 04:34:07;;;;;;;15.70;10.10;;;8.40;88.20;;;;;;4985659;28;20791;-50
2021/12/16 04:36:34;;;;;;;17.77;12.90;;;8.40;88.00;;;;;;5002044;28;20453;-50
2021/12/16 04:39:06;;;;;;;17.17;11.23;;;8.40;88.00;;;;;;4998589;28;20479;-50
2021/12/16 04:41:33;;;;;;;14.80;10.90;;;8.40;88.10;;;;;;4996512;28;20877;-50
2021/12/16 04:44:02;;;;;;;18.70;11.60;;;8.40;88.20;;;;;;4998145;28;20489;-50
2021/12/16 04:46:30;;;;;;;14.87;10.67;;;8.40;88.20;;;;;;5000459;28;20470;-50
2021/12/16 04:48:59;;;;;;;17.50;12.37;;;8.40;88.30;;;;;;4997933;28;20449;-50
2021/12/16 04:51:29;;;;;;;17.47;11.40;;;8.40;88.30;;;;;;4999468;28;20456;-50
2021/12/16 04:53:57;;;;;;;15.40;11.00;;;8.40;88.30;;;;;;4998507;28;20466;-50
2021/12/16 04:56:24;;;;;;;19.97;13.10;;;8.40;88.40;;;;;;4988817;28;20454;-50
2021/12/16 04:58:52;;;;;;;16.87;11.13;;;8.40;88.40;;;;;;5002921;28;20486;-50
2021/12/16 05:01:21;;;;;;;14.73;11.90;;;8.40;88.40;;;;;;4995907;28;20564;-50
2021/12/16 05:03:48;;;;;;;22.00;12.57;;;8.40;88.40;;;;;;4995963;28;20852;-50
2021/12/16 05:06:15;;;;;;;14.43;10.37;;;8.40;88.30;;;;;;5001449;28;20459;-50
2021/12/16 05:08:42;;;;;;;15.73;11.40;;;8.40;88.20;;;;;;4998986;28;21016;-50
2021/12/16 05:11:13;;;;;;;15.07;9.10;;;8.40;88.10;;;;;;4999522;28;20467;-50
2021/12/16 05:13:43;;;;;;;15.60;10.87;;;8.40;88.10;;;;;;5001118;28;20459;-50
2021/12/16 05:16:10;;;;;;;20.67;11.80;;;8.40;88.10;;;;;;4990499;28;20845;-50
2021/12/16 05:18:38;;;;;;;16.90;11.07;;;8.40;88.10;;;;;;4999399;28;20827;-50
2021/12/16 05:21:12;;;;;;;17.30;11.50;;;8.40;88.20;;;;;;4998129;28;21076;-50
2021/12/16 05:26:25;;;;;;;15.70;10.07;;;8.40;88.00;;;;;;5003226;28;20475;-50
2021/12/16 05:28:54;;;;;;;16.43;10.83;;;8.40;88.20;;;;;;4991541;28;20455;-50
2021/12/16 05:31:26;;;;;;;18.77;12.50;;;8.40;88.20;;;;;;5005721;28;20913;-50
2021/12/16 05:33:55;;;;;;;15.93;12.60;;;8.40;87.80;;;;;;5006182;28;20448;-50
2021/12/16 05:36:22;;;;;;;17.87;12.27;;;8.40;88.00;;;;;;5004920;28;21047;-50
2021/12/16 05:38:49;;;;;;;16.80;11.73;;;8.40;88.10;;;;;;4998194;28;20456;-50
2021/12/16 05:41:19;;;;;;;16.80;11.47;;;8.40;88.00;;;;;;4982121;28;20818;-50
2021/12/16 05:43:46;;;;;;;19.20;11.87;;;8.40;88.10;;;;;;4987309;28;20481;-50
2021/12/16 05:46:16;;;;;;;20.07;11.73;;;8.40;88.30;;;;;;5001244;28;20453;-50
2021/12/16 05:48:45;;;;;;;17.60;11.53;;;8.40;88.30;;;;;;4999943;28;20495;-50
2021/12/16 05:51:21;;;;;;;18.17;11.80;;;8.40;88.10;;;;;;5004012;28;20452;-50
2021/12/16 05:53:49;;;;;;;20.80;12.80;;;8.40;88.30;;;;;;4991560;28;20460;-50
2021/12/16 05:56:16;;;;;;;16.67;13.23;;;8.40;87.90;;;;;;5004977;28;20844;-50
2021/12/16 05:58:44;;;;;;;17.60;12.60;;;8.40;88.10;;;;;;5004087;28;20817;-50
2021/12/16 06:01:15;;;;;;;21.13;13.10;;;8.40;88.10;;;;;;5003426;28;20472;-50
2021/12/16 06:03:42;;;;;;;21.60;13.00;;;8.30;88.30;;;;;;4987069;28;20488;-50
2021/12/16 06:06:10;;;;;;;19.90;13.20;;;8.40;88.10;;;;;;4986425;28;20849;-50
2021/12/16 06:08:38;;;;;;;20.20;13.40;;;8.40;88.00;;;;;;5006511;28;20476;-50
2021/12/16 06:13:38;;;;;;;17.93;12.20;;;8.30;88.40;;;;;;5001518;28;20475;-50
2021/12/16 06:29:29;;;;;;;19.33;12.47;;;8.30;88.60;;;;;;5001662;28;20460;-50
2021/12/16 06:31:56;;;;;;;19.93;13.37;;;8.30;88.60;;;;;;5002357;28;20949;-50
2021/12/16 06:34:23;;;;;;;18.30;13.07;;;8.30;88.70;;;;;;4987581;28;20468;-49
2021/12/16 06:36:50;;;;;;;18.93;12.00;;;8.40;88.60;;;;;;5000572;28;20467;-50
2021/12/16 06:39:17;;;;;;;19.83;13.03;;;8.30;88.60;;;;;;5000595;28;20461;-50
2021/12/16 06:41:44;;;;;;;21.90;13.87;;;8.40;88.40;;;;;;4988037;28;20483;-50
2021/12/16 06:44:28;;;;;;;22.07;12.90;;;8.40;88.40;;;;;;5003322;28;20494;-50
2021/12/16 06:47:01;;;;;;;19.57;13.67;;;8.40;88.50;;;;;;5001464;28;20448;-50
2021/12/16 06:49:30;;;;;;;22.33;12.77;;;8.40;88.60;;;;;;5003886;28;20536;-50
2021/12/16 06:52:02;;;;;;;20.47;13.30;;;8.40;88.60;;;;;;5004358;28;21349;-50
2021/12/16 06:54:35;;;;;;;20.83;12.20;;;8.40;88.40;;;;;;5002416;28;20992;-50
2021/12/16 06:59:50;;;;;;;14.20;11.40;;;8.40;88.40;;;;;;5005293;28;20479;-50
2021/12/16 07:02:59;;;;;;;18.00;12.40;;;8.40;88.30;;;;;;5003483;28;20457;-50
2021/12/16 07:05:37;;;;;;;15.60;11.03;;;8.40;88.50;;;;;;4989398;28;20832;-50
2021/12/16 07:08:09;;;;;;;20.00;12.50;;;8.30;88.50;;;;;;4984945;28;20460;-50
2021/12/16 07:10:36;;;;;;;18.73;12.97;;;8.30;88.60;;;;;;4990610;28;20794;-50
2021/12/16 07:13:16;;;;;;;16.93;11.70;;;8.30;88.50;;;;;;4986479;28;20833;-50
2021/12/16 07:15:45;;;;;;;18.37;12.33;;;8.30;88.70;;;;;;4986461;28;20456;-50
2021/12/16 07:18:12;;;;;;;18.30;12.53;;;8.30;88.60;;;;;;5001845;28;20539;-50
2021/12/16 07:20:40;;;;;;;20.20;14.40;;;8.30;88.60;;;;;;5002670;28;20491;-50
2021/12/16 07:23:08;;;;;;;21.30;13.03;;;8.30;88.70;;;;;;5001676;28;20478;-50
2021/12/16 07:25:37;;;;;;;21.80;14.60;;;8.40;88.50;;;;;;5003879;28;20567;-50
2021/12/16 07:28:07;;;;;;;20.23;13.60;;;8.40;88.40;;;;;;4988380;28;20452;-50
2021/12/16 07:30:39;;;;;;;19.03;13.13;;;8.40;88.40;;;;;;4990179;28;20445;-50
2021/12/16 07:33:09;;;;;;;17.77;12.53;;;8.30;88.70;;;;;;5000739;28;20464;-50
2021/12/16 07:35:37;;;;;;;18.47;12.70;;;8.40;88.70;;;;;;5000974;28;21016;-50
2021/12/16 07:38:05;;;;;;;20.27;13.90;;;8.30;88.70;;;;;;5003966;28;20496;-51
2021/12/16 07:40:33;;;;;;;19.33;14.20;;;8.40;88.80;;;;;;4998208;28;20470;-51
2021/12/16 07:45:32;;;;;;;17.80;12.70;;;8.40;88.90;;;;;;4996094;28;20488;-51
2021/12/16 07:48:01;;;;;;;21.80;13.60;;;8.40;88.60;;;;;;5000592;28;20484;-51
2021/12/16 07:50:28;;;;;;;19.37;11.87;;;8.40;88.60;;;;;;5002486;28;20499;-51
2021/12/16 07:52:55;;;;;;;17.73;12.30;;;8.40;88.90;;;;;;4998213;28;20468;-51
2021/12/16 07:55:22;;;;;;;21.17;14.20;;;8.40;88.70;;;;;;5000158;28;20473;-51
2021/12/16 07:57:49;;;;;;;24.90;16.30;;;8.40;88.70;;;;;;4998973;28;21031;-51
2021/12/16 08:00:28;;;;;;;19.57;13.70;;;8.40;88.80;;;;;;5000469;28;20490;-51
2021/12/16 08:02:55;;;;;;;22.30;12.17;;;8.40;88.80;;;;;;5001309;28;20937;-51
2021/12/16 08:05:25;;;;;;;22.67;15.27;;;8.30;89.00;;;;;;4985557;28;20500;-51
2021/12/16 08:07:52;;;;;;;19.20;13.63;;;8.40;89.20;;;;;;4984410;28;20471;-51
2021/12/16 08:10:21;;;;;;;25.30;14.40;;;8.40;89.00;;;;;;4997864;28;20471;-51
2021/12/16 08:12:49;;;;;;;24.00;13.03;;;8.40;89.00;;;;;;4997021;28;20465;-51
2021/12/16 08:15:17;;;;;;;22.40;14.23;;;8.40;89.10;;;;;;5000565;28;20965;-51
2021/12/16 08:17:44;;;;;;;19.77;13.50;;;8.40;89.20;;;;;;4984581;28;20535;-51
2021/12/16 08:20:16;;;;;;;19.97;14.10;;;8.50;89.20;;;;;;4985219;28;20464;-51
2021/12/16 08:22:44;;;;;;;18.50;12.60;;;8.50;88.90;;;;;;4996680;28;20467;-51
2021/12/16 08:25:12;;;;;;;16.60;12.90;;;8.50;88.50;;;;;;4997262;28;20491;-51
2021/12/16 08:27:39;;;;;;;20.30;13.73;;;8.50;88.80;;;;;;5000461;28;20971;-51
2021/12/16 08:30:09;;;;;;;26.30;17.33;;;8.50;88.90;;;;;;4982278;28;20859;-51
2021/12/16 08:32:36;;;;;;;19.73;15.70;;;8.60;88.50;;;;;;4999055;28;21482;-50
2021/12/16 08:35:06;;;;;;;19.33;14.90;;;8.60;88.50;;;;;;4999936;28;21000;-50
2021/12/16 08:37:32;;;;;;;22.30;13.00;;;8.60;88.80;;;;;;4998933;28;20881;-50
2021/12/16 08:40:00;;;;;;;17.80;13.07;;;8.60;88.70;;;;;;5001108;28;20844;-51
2021/12/16 08:42:27;;;;;;;18.70;12.70;;;8.60;88.50;;;;;;4999425;28;20468;-50
2021/12/16 08:44:54;;;;;;;22.53;14.73;;;8.60;88.50;;;;;;4999205;28;20488;-50
2021/12/16 08:47:21;;;;;;;22.50;14.50;;;8.60;88.70;;;;;;4982933;28;20883;-51
2021/12/16 08:49:48;;;;;;;17.40;13.70;;;8.70;88.30;;;;;;4997832;28;20955;-50
2021/12/16 08:52:23;;;;;;;20.67;14.00;;;8.70;88.10;;;;;;4999508;28;20457;-50
2021/12/16 08:54:52;;;;;;;18.90;14.00;;;8.70;88.20;;;;;;4987290;28;20548;-50
2021/12/16 08:57:24;;;;;;;20.77;14.03;;;8.60;88.50;;;;;;4999882;28;20730;-52
2021/12/16 08:59:51;;;;;;;21.50;14.13;;;8.70;88.40;;;;;;5007390;28;20523;-49
2021/12/16 09:02:19;;;;;;;22.93;13.80;;;8.70;88.50;;;;;;5002473;28;20467;-50
2021/12/16 09:04:47;;;;;;;17.10;12.70;;;8.70;88.60;;;;;;5001781;28;20911;-49
2021/12/16 09:07:14;;;;;;;22.70;15.80;;;8.80;88.50;;;;;;4985567;28;20460;-49
2021/12/16 09:09:43;;;;;;;23.07;14.53;;;8.70;88.60;;;;;;5000805;28;21432;-52
2021/12/16 09:13:02;;;;;;;19.33;13.87;;;8.80;88.60;;;;;;4990352;28;20842;-51
2021/12/16 09:15:13;;;;;;;21.67;14.57;;;8.70;88.80;;;;;;4999139;28;20843;-51
2021/12/16 09:17:40;;;;;;;19.23;14.20;;;8.70;88.90;;;;;;5003617;28;21008;-51
2021/12/16 09:20:08;;;;;;;22.50;16.90;;;8.80;89.00;;;;;;5002470;28;20469;-51
2021/12/16 09:22:36;;;;;;;25.27;17.57;;;8.90;88.40;;;;;;5002741;28;20471;-51
2021/12/16 09:25:04;;;;;;;24.17;15.40;;;9.00;88.20;;;;;;5003543;28;20489;-51
2021/12/16 09:27:31;;;;;;;21.70;15.60;;;9.00;88.00;;;;;;4986505;28;20456;-51
2021/12/16 09:29:59;;;;;;;23.93;14.73;;;9.00;88.30;;;;;;5000196;28;20449;-50
2021/12/16 09:32:29;;;;;;;27.07;15.37;;;9.00;88.60;;;;;;4991701;28;20976;-51
2021/12/16 09:34:57;;;;;;;22.00;16.07;;;9.10;88.50;;;;;;5000692;28;20514;-50
2021/12/16 09:37:24;;;;;;;21.30;15.27;;;9.10;88.30;;;;;;5001688;28;20460;-50
2021/12/16 09:39:50;;;;;;;21.13;14.33;;;9.20;88.20;;;;;;5003184;28;20463;-51
2021/12/16 09:42:17;;;;;;;18.20;13.90;;;9.30;87.30;;;;;;5004766;28;20825;-51
2021/12/16 09:44:44;;;;;;;21.47;15.77;;;9.30;87.30;;;;;;5003185;28;20499;-51
2021/12/16 09:47:13;;;;;;;22.73;14.83;;;9.30;87.60;;;;;;4990032;28;20535;-51
2021/12/16 09:49:41;;;;;;;20.83;16.53;;;9.30;87.10;;;;;;5002221;28;20445;-51
2021/12/16 09:52:11;;;;;;;20.63;15.20;;;9.40;86.70;;;;;;4984089;28;20527;-50
2021/12/16 09:54:40;;;;;;;25.73;15.23;;;9.40;86.60;;;;;;5001040;28;20963;-50
2021/12/16 09:57:08;;;;;;;26.30;17.60;;;9.40;86.80;;;;;;4991818;28;20481;-51
2021/12/16 09:59:36;;;;;;;25.80;18.07;;;9.40;87.10;;;;;;4986940;28;20522;-51
2021/12/16 10:02:07;;;;;;;23.67;17.03;;;9.50;87.10;;;;;;4984301;28;20471;-51
2021/12/16 10:04:46;;;;;;;22.93;15.80;;;9.50;87.20;;;;;;4998674;28;20489;-52
2021/12/16 10:07:17;;;;;;;21.30;16.70;;;9.60;87.10;;;;;;5001352;28;20854;-51
2021/12/16 10:09:47;;;;;;;24.43;15.77;;;9.60;86.90;;;;;;5002202;28;20468;-51
2021/12/16 10:12:18;;;;;;;31.87;18.70;;;9.70;86.60;;;;;;5002928;28;20453;-51
2021/12/16 10:17:32;;;;;;;20.47;14.70;;;9.80;86.00;;;;;;5002152;28;21043;-51
2021/12/16 10:20:05;;;;;;;20.10;14.90;;;9.80;85.70;;;;;;5003528;28;20457;-51
2021/12/16 10:22:39;;;;;;;23.50;16.00;;;9.90;85.30;;;;;;5004727;28;20464;-51
2021/12/16 10:25:26;;;;;;;20.93;15.37;;;9.90;85.30;;;;;;5002428;28;20514;-51
2021/12/16 10:27:52;;;;;;;23.70;16.70;;;9.90;85.30;;;;;;5001729;28;20459;-51
2021/12/16 10:30:19;;;;;;;25.10;16.03;;;9.90;85.20;;;;;;5001749;28;20461;-51
2021/12/16 10:32:48;;;;;;;21.13;15.47;;;10.00;85.20;;;;;;4984056;28;20472;-51
2021/12/16 10:35:29;;;;;;;24.10;16.93;;;10.00;85.40;;;;;;5003862;28;20801;-51
2021/12/16 10:38:04;;;;;;;25.40;17.40;;;10.00;84.90;;;;;;5002619;28;20468;-51
2021/12/16 10:40:45;;;;;;;19.03;14.47;;;10.10;84.00;;;;;;4998766;28;20881;-51
2021/12/16 10:43:25;;;;;;;23.00;14.73;;;10.00;84.10;;;;;;4985982;28;20930;-51
2021/12/16 10:46:08;;;;;;;21.70;15.57;;;10.00;84.50;;;;;;4999728;28;20498;-51
2021/12/16 10:48:43;;;;;;;22.70;15.80;;;10.10;84.40;;;;;;4987714;28;20453;-51
2021/12/16 10:51:30;;;;;;;20.87;15.57;;;10.10;84.60;;;;;;4989439;28;20463;-51
2021/12/16 10:54:17;;;;;;;21.10;14.57;;;10.10;85.00;;;;;;4997766;28;20469;-51
2021/12/16 10:57:04;;;;;;;20.80;15.73;;;10.10;85.20;;;;;;5000431;28;20473;-51
2021/12/16 10:59:40;;;;;;;20.27;16.20;;;10.20;84.50;;;;;;4999675;28;20563;-51
2021/12/16 11:02:07;;;;;;;24.33;16.10;;;10.20;84.00;;;;;;4983723;28;20464;-51
2021/12/16 11:04:44;;;;;;;21.20;15.97;;;10.20;83.40;;;;;;5001161;28;20979;-51
2021/12/16 11:07:18;;;;;;;26.80;16.83;;;10.20;83.90;;;;;;4996742;28;20467;-51
2021/12/16 11:10:14;;;;;;;20.87;16.23;;;10.20;84.20;;;;;;4984149;28;20575;-51
2021/12/16 11:12:53;;;;;;;23.93;17.17;;;10.20;84.50;;;;;;4989273;28;20456;-51
2021/12/16 11:15:31;;;;;;;19.37;14.40;;;10.20;84.60;;;;;;5003645;28;20499;-51
2021/12/16 11:18:06;;;;;;;27.33;15.90;;;10.20;84.40;;;;;;5001075;28;20535;-52
2021/12/16 11:20:42;;;;;;;21.60;14.87;;;10.30;83.40;;;;;;4999822;28;20578;-51
2021/12/16 11:23:26;;;;;;;22.23;15.50;;;10.30;83.10;;;;;;4999918;28;20479;-51
2021/12/16 11:25:56;;;;;;;23.13;15.27;;;10.30;83.30;;;;;;5000521;28;21006;-51
2021/12/16 11:28:28;;;;;;;24.43;17.50;;;10.30;83.70;;;;;;5001389;28;20464;-50
2021/12/16 11:31:06;;;;;;;22.53;15.47;;;10.30;83.70;;;;;;5003861;28;20519;-50
2021/12/16 11:33:43;;;;;;;24.80;16.27;;;10.30;84.00;;;;;;5003282;28;20487;-50
2021/12/16 11:36:16;;;;;;;25.77;15.80;;;10.30;84.10;;;;;;5001429;28;20526;-50
2021/12/16 11:39:01;;;;;;;24.33;16.37;;;10.30;84.10;;;;;;5004405;28;20453;-50
2021/12/16 11:41:35;;;;;;;22.43;15.33;;;10.40;84.00;;;;;;5000558;28;20464;-50
2021/12/16 11:44:17;;;;;;;25.27;16.87;;;10.40;83.90;;;;;;4986342;28;20494;-50
2021/12/16 11:47:02;;;;;;;25.20;16.70;;;10.40;83.80;;;;;;4980472;28;20520;-50
2021/12/16 11:49:37;;;;;;;22.10;17.10;;;10.40;83.70;;;;;;4986089;28;20522;-50
2021/12/16 11:52:14;;;;;;;23.10;16.00;;;10.40;83.70;;;;;;5000193;28;20456;-50
2021/12/16 11:54:50;;;;;;;22.83;15.17;;;10.40;83.70;;;;;;5003309;28;20449;-50
2021/12/16 11:57:20;;;;;;;27.27;16.87;;;10.40;83.90;;;;;;5003718;28;20494;-49
2021/12/16 11:59:55;;;;;;;25.10;16.10;;;10.50;84.00;;;;;;5002600;28;20492;-50
2021/12/16 12:02:35;;;;;;;28.37;17.90;;;10.50;83.90;;;;;;5002103;28;20551;-50
2021/12/16 12:05:23;;;;;;;25.00;17.37;;;10.50;83.80;;;;;;5002144;28;20899;-52
2021/12/16 12:07:57;;;;;;;27.00;15.13;;;10.60;83.80;;;;;;5001922;28;20989;-52
2021/12/16 12:10:59;;;;;;;22.07;15.43;;;10.60;83.70;;;;;;4999616;28;20461;-52
2021/12/16 12:13:39;;;;;;;25.50;15.70;;;10.60;83.70;;;;;;4986471;28;21165;-52
2021/12/16 12:16:13;;;;;;;22.00;16.60;;;10.60;83.70;;;;;;5001402;28;20472;-52
2021/12/16 12:18:48;;;;;;;25.70;17.10;;;10.60;83.50;;;;;;4996189;28;20465;-52
2021/12/16 12:21:33;;;;;;;23.50;15.40;;;10.60;83.40;;;;;;4997071;28;20468;-52
2021/12/16 12:24:06;;;;;;;24.33;16.47;;;10.70;83.40;;;;;;4997776;28;20460;-52
2021/12/16 12:26:37;;;;;;;23.10;16.40;;;10.60;83.30;;;;;;4997651;28;20916;-52
2021/12/16 12:29:11;;;;;;;25.20;17.17;;;10.70;83.40;;;;;;4997527;28;20456;-52
2021/12/16 12:31:48;;;;;;;23.07;16.50;;;10.70;83.40;;;;;;4995818;28;20453;-52
2021/12/16 12:34:16;;;;;;;22.93;16.27;;;10.70;83.40;;;;;;4996156;28;20452;-52
2021/12/16 12:36:44;;;;;;;34.70;19.43;;;10.70;83.40;;;;;;4998334;28;20494;-52
2021/12/16 12:39:15;;;;;;;27.93;17.70;;;10.70;83.30;;;;;;4996572;28;20854;-52
2021/12/16 12:41:44;;;;;;;25.50;17.83;;;10.70;83.20;;;;;;5002325;28;20837;-52
2021/12/16 12:44:11;;;;;;;23.83;16.50;;;10.70;83.10;;;;;;4988745;28;20888;-52
2021/12/16 12:46:39;;;;;;;25.73;17.07;;;10.70;83.10;;;;;;4992618;28;20485;-52
2021/12/16 12:49:13;;;;;;;23.90;16.53;;;10.70;83.20;;;;;;4998957;28;20540;-52
2021/12/16 12:51:48;;;;;;;27.80;18.27;;;10.80;83.20;;;;;;4994192;28;20462;-52
2021/12/16 12:54:17;;;;;;;22.80;15.80;;;10.80;83.00;;;;;;4986091;28;20510;-51
2021/12/16 12:56:44;;;;;;;29.93;17.93;;;10.90;82.50;;;;;;4979539;28;20461;-53
2021/12/16 12:59:15;;;;;;;25.73;17.30;;;10.90;82.20;;;;;;4981107;28;20495;-50
2021/12/16 13:01:45;;;;;;;27.37;16.90;;;10.80;82.60;;;;;;5002621;28;20456;-51
2021/12/16 13:04:42;;;;;;;29.73;19.30;;;10.80;82.80;;;;;;5001038;28;20522;-51
2021/12/16 13:07:10;;;;;;;25.87;16.90;;;10.80;82.80;;;;;;5002074;28;20499;-51
2021/12/16 13:09:48;;;;;;;23.70;16.47;;;10.80;83.00;;;;;;4999712;28;20459;-51
2021/12/16 13:12:42;;;;;;;24.83;17.70;;;10.80;83.10;;;;;;4999120;28;20447;-51
2021/12/16 13:15:27;;;;;;;25.80;17.33;;;10.80;83.10;;;;;;4994725;28;21033;-52
2021/12/16 13:23:41;;;;;;;24.07;16.83;;;10.90;83.20;;;;;;4997273;28;20999;-50
2021/12/16 13:26:27;;;;;;;21.90;15.80;;;10.90;83.20;;;;;;5001167;28;20495;-50
2021/12/16 13:29:05;;;;;;;25.13;16.57;;;10.90;83.10;;;;;;5000904;28;20464;-50
2021/12/16 13:32:08;;;;;;;27.20;17.13;;;10.90;83.20;;;;;;4996980;28;20465;-50
2021/12/16 13:34:59;;;;;;;26.63;17.60;;;10.90;83.00;;;;;;4998396;28;20603;-50
2021/12/16 13:37:45;;;;;;;24.23;17.50;;;10.90;83.10;;;;;;4999087;28;20464;-50
2021/12/16 13:40:26;;;;;;;23.57;16.83;;;10.90;83.10;;;;;;4999174;28;20719;-50
2021/12/16 13:43:04;;;;;;;26.50;16.67;;;10.90;83.10;;;;;;5002330;28;20462;-50
2021/12/16 13:45:36;;;;;;;23.20;17.00;;;10.90;83.20;;;;;;5005617;28;21072;-51
2021/12/16 14:05:18;;;;;;;33.10;18.83;;;11.00;83.40;;;;;;5001791;28;20548;-51
2021/12/16 14:07:56;;;;;;;28.33;19.83;;;11.00;83.30;;;;;;5004213;28;20472;-51
2021/12/16 14:10:33;;;;;;;26.27;17.57;;;11.00;83.10;;;;;;5002209;28;20466;-51
2021/12/16 14:16:33;;;;;;;23.50;16.60;;;11.10;82.70;;;;;;5000008;28;20474;-51
2021/12/16 14:50:54;;;;;;;22.47;16.90;;;10.90;83.60;;;;;;5002164;28;20467;-51
2021/12/16 14:53:36;;;;;;;20.30;16.03;;;10.90;83.60;;;;;;5006762;28;21013;-50
2021/12/16 14:56:17;;;;;;;22.67;16.57;;;10.90;83.70;;;;;;5000646;28;20606;-51
2021/12/16 14:58:49;;;;;;;26.30;18.47;;;10.90;83.80;;;;;;5002883;28;20555;-50
2021/12/16 15:01:24;;;;;;;26.27;18.83;;;10.90;83.80;;;;;;4990162;28;20585;-50
2021/12/16 15:03:52;;;;;;;28.83;17.77;;;10.90;83.90;;;;;;4999487;28;20471;-51
2021/12/16 15:06:27;;;;;;;28.57;17.80;;;10.80;83.90;;;;;;5003472;28;20492;-51
2021/12/16 15:09:19;;;;;;;24.07;18.07;;;10.80;83.90;;;;;;5001729;28;20536;-51
2021/12/16 15:12:02;;;;;;;23.00;17.17;;;10.80;83.90;;;;;;5001865;28;20454;-51
2021/12/16 15:37:36;;;;;;;23.43;17.57;;;10.60;84.60;;;;;;4999067;28;20471;-50
2021/12/16 15:45:24;;;;;;;24.17;16.23;;;10.60;84.60;;;;;;4999608;28;20476;-50
2021/12/16 15:47:59;;;;;;;27.47;17.70;;;10.60;84.70;;;;;;4999525;28;20524;-50
2021/12/16 15:50:44;;;;;;;22.93;16.30;;;10.50;84.80;;;;;;4998898;28;20962;-50
2021/12/16 15:53:20;;;;;;;20.60;15.83;;;10.50;84.90;;;;;;4998690;28;20461;-50
2021/12/16 15:55:51;;;;;;;21.27;14.87;;;10.50;84.80;;;;;;4997677;28;20459;-50
2021/12/16 15:58:25;;;;;;;23.33;15.60;;;10.50;84.90;;;;;;4999403;28;20477;-50
2021/12/16 16:00:57;;;;;;;22.43;15.93;;;10.50;84.80;;;;;;4984431;28;20457;-51
2021/12/16 16:03:26;;;;;;;23.00;15.57;;;10.50;85.00;;;;;;4998377;28;20452;-51
2021/12/16 16:05:57;;;;;;;21.80;14.50;;;10.50;85.00;;;;;;4999174;28;21049;-51
2021/12/16 16:08:29;;;;;;;23.83;15.30;;;10.40;85.00;;;;;;4996872;28;20458;-51
2021/12/16 16:11:01;;;;;;;18.87;13.80;;;10.50;85.00;;;;;;5003628;28;20831;-51
2021/12/16 16:13:32;;;;;;;23.20;15.60;;;10.40;85.00;;;;;;4999566;28;20957;-50
2021/12/16 16:16:02;;;;;;;19.50;15.23;;;10.40;85.10;;;;;;4982527;28;20472;-51
2021/12/16 16:21:13;;;;;;;19.20;15.17;;;10.40;85.20;;;;;;5001843;28;20452;-51
2021/12/16 16:23:44;;;;;;;24.70;16.33;;;10.40;85.20;;;;;;4985855;28;20573;-51
2021/12/16 16:26:12;;;;;;;23.87;16.53;;;10.30;85.20;;;;;;4996518;28;20493;-51
2021/12/16 16:28:42;;;;;;;25.43;16.70;;;10.30;85.30;;;;;;5000478;28;20448;-51
2021/12/16 16:31:12;;;;;;;22.20;16.47;;;10.30;85.30;;;;;;4993651;28;20548;-51
2021/12/16 16:33:39;;;;;;;20.30;16.07;;;10.30;85.30;;;;;;4988872;28;20539;-50
2021/12/16 16:36:09;;;;;;;22.97;15.03;;;10.20;85.40;;;;;;4969132;28;20457;-50
2021/12/16 16:38:38;;;;;;;21.23;15.17;;;10.20;85.50;;;;;;4997126;28;20453;-50
2021/12/16 16:41:09;;;;;;;20.73;15.73;;;10.20;85.50;;;;;;4998076;28;20460;-50
2021/12/16 16:43:45;;;;;;;24.07;16.40;;;10.20;85.50;;;;;;4997198;28;20453;-50
2021/12/16 16:46:20;;;;;;;25.40;16.53;;;10.20;85.60;;;;;;4997380;28;20491;-50
2021/12/16 16:51:31;;;;;;;20.90;15.10;;;10.10;85.70;;;;;;4995631;28;20496;-50
2021/12/16 16:54:27;;;;;;;22.73;15.57;;;10.10;85.90;;;;;;4995818;28;20489;-50
2021/12/16 16:57:20;;;;;;;25.50;17.10;;;10.10;85.90;;;;;;4993894;28;20465;-50
2021/12/16 16:59:56;;;;;;;25.73;15.30;;;10.10;86.00;;;;;;4997680;28;20502;-50